createdAt,value
2022-09-18T00:00:25.582Z,86.34
2022-09-18T00:02:53.048Z,86.34
2022-09-18T00:05:20.543Z,85.34
2022-09-18T00:07:47.987Z,85.28
2022-09-18T00:10:15.493Z,85.14
2022-09-18T00:12:42.942Z,85.88
2022-09-18T00:15:10.842Z,85.38
2022-09-18T00:17:39.628Z,85.24
2022-09-18T00:20:09.055Z,86.14
2022-09-18T00:22:36.684Z,86.30
2022-09-18T00:25:04.802Z,86.82
2022-09-18T00:27:32.249Z,86.93
2022-09-18T00:29:59.704Z,85.48
2022-09-18T00:32:27.131Z,85.76
2022-09-18T00:34:55.936Z,86.41
2022-09-18T00:37:23.396Z,86.51
2022-09-18T00:39:50.895Z,86.09
2022-09-18T00:42:21.226Z,87.42
2022-09-18T00:44:49.563Z,85.83
2022-09-18T00:47:27.548Z,86.36
2022-09-18T00:50:02.380Z,86.03
2022-09-18T00:52:34.401Z,86.15
2022-09-18T00:55:04.305Z,86.11
2022-09-18T00:57:33.884Z,85.85
2022-09-18T01:00:02.562Z,85.41
2022-09-18T01:02:30.101Z,86.65
2022-09-18T01:04:58.955Z,86.66
2022-09-18T01:07:36.654Z,86.57
2022-09-18T01:10:14.833Z,86.75
2022-09-18T01:12:47.180Z,85.50
2022-09-18T01:15:20.565Z,87.01
2022-09-18T01:17:53.915Z,86.92
2022-09-18T01:20:41.794Z,86.77
2022-09-18T01:23:15.946Z,87.10
2022-09-18T01:25:55.785Z,87.05
2022-09-18T01:28:27.915Z,86.68
2022-09-18T01:30:58.423Z,86.66
2022-09-18T01:33:29.695Z,85.12
2022-09-18T01:36:00.305Z,85.91
2022-09-18T01:38:30.791Z,86.16
2022-09-18T01:41:02.315Z,85.76
2022-09-18T01:43:31.856Z,86.40
2022-09-18T01:46:04.261Z,84.68
2022-09-18T01:48:33.378Z,84.85
2022-09-18T01:51:05.714Z,85.76
2022-09-18T01:53:36.549Z,84.82
2022-09-18T01:56:08.984Z,83.75
2022-09-18T01:58:38.284Z,83.87
2022-09-18T02:01:09.986Z,84.94
2022-09-18T02:03:40.698Z,84.50
2022-09-18T02:06:11.041Z,83.72
2022-09-18T02:08:42.854Z,83.32
2022-09-18T02:11:12.269Z,84.43
2022-09-18T02:13:44.615Z,84.69
2022-09-18T02:16:17.082Z,85.91
2022-09-18T02:18:48.353Z,85.16
2022-09-18T02:21:20.780Z,85.50
2022-09-18T02:23:48.474Z,84.34
2022-09-18T02:26:16.337Z,85.76
2022-09-18T02:28:45.731Z,85.72
2022-09-18T02:31:13.374Z,86.38
2022-09-18T02:33:40.959Z,86.38
2022-09-18T02:36:29.910Z,86.42
2022-09-18T02:39:03.099Z,87.47
2022-09-18T02:41:36.277Z,86.99
2022-09-18T02:44:10.338Z,86.70
2022-09-18T02:46:43.900Z,87.14
2022-09-18T02:49:13.257Z,85.26
2022-09-18T02:51:45.527Z,85.25
2022-09-18T02:54:14.816Z,85.38
2022-09-18T02:56:44.992Z,86.11
2022-09-18T02:59:18.198Z,84.18
2022-09-18T03:01:46.612Z,84.70
2022-09-18T03:04:15.969Z,85.85
2022-09-18T03:06:43.399Z,86.05
2022-09-18T03:09:10.853Z,85.39
2022-09-18T03:11:38.303Z,85.64
2022-09-18T03:14:05.841Z,86.04
2022-09-18T03:16:34.879Z,84.88
2022-09-18T03:19:02.609Z,84.61
2022-09-18T03:21:30.129Z,84.56
2022-09-18T03:23:57.863Z,83.26
2022-09-18T03:26:25.448Z,84.15
2022-09-18T03:28:52.910Z,84.68
2022-09-18T03:31:20.544Z,84.21
2022-09-18T03:33:49.368Z,84.11
2022-09-18T03:36:16.795Z,84.33
2022-09-18T03:38:44.253Z,84.33
2022-09-18T03:41:11.712Z,83.88
2022-09-18T03:43:39.688Z,83.98
2022-09-18T03:46:07.158Z,82.44
2022-09-18T03:48:34.693Z,83.26
2022-09-18T03:51:03.461Z,82.66
2022-09-18T03:53:30.905Z,83.94
2022-09-18T03:55:58.332Z,84.62
2022-09-18T03:58:25.796Z,84.66
2022-09-18T04:00:53.243Z,84.82
2022-09-18T04:03:20.746Z,84.51
2022-09-18T04:05:49.552Z,84.48
2022-09-18T04:08:19.165Z,83.47
2022-09-18T04:10:48.470Z,84.46
2022-09-18T04:13:16.264Z,84.08
2022-09-18T04:15:45.146Z,83.71
2022-09-18T04:18:12.707Z,83.49
2022-09-18T04:20:40.180Z,83.07
2022-09-18T04:23:07.642Z,83.59
2022-09-18T04:25:36.449Z,84.87
2022-09-18T04:28:03.961Z,83.76
2022-09-18T04:30:31.379Z,84.31
2022-09-18T04:32:58.838Z,83.95
2022-09-18T04:35:26.574Z,82.95
2022-09-18T04:37:54.056Z,82.43
2022-09-18T04:40:22.049Z,83.48
2022-09-18T04:42:50.960Z,83.19
2022-09-18T04:45:18.606Z,83.11
2022-09-18T04:47:46.355Z,83.09
2022-09-18T04:50:15.046Z,82.78
2022-09-18T04:52:42.496Z,82.69
2022-09-18T04:55:10.511Z,81.12
2022-09-18T04:57:37.988Z,82.22
2022-09-18T05:00:09.315Z,82.18
2022-09-18T05:02:38.730Z,82.09
2022-09-18T05:05:06.841Z,82.22
2022-09-18T05:07:34.292Z,81.53
2022-09-18T05:10:04.913Z,81.53
2022-09-18T05:12:32.650Z,80.97
2022-09-18T05:15:00.721Z,80.91
2022-09-18T05:17:29.717Z,81.36
2022-09-18T05:19:57.378Z,80.61
2022-09-18T05:22:25.249Z,80.31
2022-09-18T05:24:53.029Z,81.24
2022-09-18T05:27:26.119Z,80.35
2022-09-18T05:29:54.483Z,80.44
2022-09-18T05:32:24.398Z,80.22
2022-09-18T05:34:53.384Z,81.47
2022-09-18T05:37:21.221Z,80.74
2022-09-18T05:39:48.858Z,80.86
2022-09-18T05:42:16.673Z,80.25
2022-09-18T05:44:44.327Z,80.59
2022-09-18T05:47:12.109Z,80.60
2022-09-18T05:49:39.919Z,81.19
2022-09-18T05:52:09.388Z,81.06
2022-09-18T05:54:37.005Z,81.55
2022-09-18T05:57:04.902Z,80.96
2022-09-18T05:59:32.455Z,81.41
2022-09-18T06:02:00.079Z,80.71
2022-09-18T06:04:27.757Z,81.58
2022-09-18T06:06:55.409Z,80.90
2022-09-18T06:09:24.348Z,80.66
2022-09-18T06:11:53.344Z,80.59
2022-09-18T06:14:22.992Z,80.97
2022-09-18T06:16:50.700Z,81.05
2022-09-18T06:19:18.373Z,81.26
2022-09-18T06:21:47.011Z,81.51
2022-09-18T06:24:15.038Z,81.36
2022-09-18T06:26:44.168Z,81.36
2022-09-18T06:29:14.652Z,81.71
2022-09-18T06:31:43.033Z,80.25
2022-09-18T06:34:12.029Z,79.74
2022-09-18T06:36:39.855Z,80.90
2022-09-18T06:39:08.062Z,80.84
2022-09-18T06:41:35.831Z,80.42
2022-09-18T06:44:04.817Z,80.92
2022-09-18T06:46:32.597Z,80.65
2022-09-18T06:49:00.281Z,80.40
2022-09-18T06:51:27.894Z,80.71
2022-09-18T06:53:55.508Z,79.70
2022-09-18T06:56:23.139Z,79.32
2022-09-18T06:58:53.115Z,78.99
2022-09-18T07:01:24.296Z,79.01
2022-09-18T07:03:52.030Z,78.06
2022-09-18T07:06:19.707Z,78.40
2022-09-18T07:08:47.345Z,78.88
2022-09-18T07:11:15.011Z,78.91
2022-09-18T07:13:42.737Z,79.20
2022-09-18T07:16:10.677Z,78.71
2022-09-18T07:18:39.811Z,78.75
2022-09-18T07:21:07.402Z,79.29
2022-09-18T07:23:35.781Z,79.01
2022-09-18T07:26:04.140Z,78.92
2022-09-18T07:28:31.937Z,79.69
2022-09-18T07:31:04.137Z,79.96
2022-09-18T07:33:32.328Z,81.21
2022-09-18T07:36:02.193Z,80.08
2022-09-18T07:38:30.129Z,81.82
2022-09-18T07:40:57.700Z,82.43
2022-09-18T07:43:25.420Z,83.30
2022-09-18T07:45:52.955Z,84.31
2022-09-18T07:48:20.644Z,83.49
2022-09-18T07:50:48.409Z,83.22
2022-09-18T07:53:18.616Z,83.55
2022-09-18T07:55:47.917Z,83.70
2022-09-18T07:58:15.730Z,83.31
2022-09-18T08:00:43.222Z,82.71
2022-09-18T08:03:12.357Z,83.22
2022-09-18T08:05:40.664Z,82.85
2022-09-18T08:08:10.024Z,82.24
2022-09-18T08:10:39.214Z,81.66
2022-09-18T08:13:07.791Z,81.17
2022-09-18T08:15:37.379Z,81.84
2022-09-18T08:18:05.071Z,80.36
2022-09-18T08:20:32.561Z,80.15
2022-09-18T08:23:00.098Z,80.82
2022-09-18T08:25:28.366Z,79.99
2022-09-18T08:27:59.749Z,79.26
2022-09-18T08:30:27.196Z,79.39
2022-09-18T08:32:58.698Z,78.40
2022-09-18T08:35:26.176Z,77.86
2022-09-18T08:37:53.722Z,78.57
2022-09-18T08:40:24.294Z,77.89
2022-09-18T08:43:03.917Z,77.57
2022-09-18T08:45:40.154Z,76.47
2022-09-18T08:48:12.841Z,76.87
2022-09-18T08:50:41.881Z,75.63
2022-09-18T08:53:14.322Z,76.54
2022-09-18T08:55:44.134Z,76.04
2022-09-18T08:58:15.420Z,75.92
2022-09-18T09:00:45.163Z,76.28
2022-09-18T09:03:21.682Z,76.52
2022-09-18T09:05:52.292Z,76.23
2022-09-18T09:08:32.161Z,76.78
2022-09-18T09:11:03.827Z,76.91
2022-09-18T09:13:54.962Z,76.12
2022-09-18T09:16:27.094Z,75.10
2022-09-18T09:19:00.078Z,76.51
2022-09-18T09:21:41.628Z,76.20
2022-09-18T09:24:20.886Z,75.28
2022-09-18T09:26:49.988Z,74.35
2022-09-18T09:29:23.148Z,74.97
2022-09-18T09:31:53.900Z,74.03
2022-09-18T09:34:23.338Z,72.80
2022-09-18T09:36:53.348Z,72.17
2022-09-18T09:39:23.935Z,72.11
2022-09-18T09:41:54.777Z,71.14
2022-09-18T09:44:31.723Z,72.05
2022-09-18T09:47:02.498Z,70.51
2022-09-18T09:49:32.952Z,70.84
2022-09-18T09:52:09.099Z,70.30
2022-09-18T09:54:37.209Z,70.24
2022-09-18T09:57:11.084Z,71.71
2022-09-18T09:59:47.257Z,70.89
2022-09-18T10:02:31.167Z,70.30
2022-09-18T10:05:04.383Z,70.34
2022-09-18T10:07:36.030Z,69.84
2022-09-18T10:10:08.418Z,69.15
2022-09-18T10:12:44.435Z,67.73
2022-09-18T10:15:17.778Z,69.39
2022-09-18T10:17:46.257Z,68.42
2022-09-18T10:20:16.411Z,68.17
2022-09-18T10:22:44.479Z,68.86
2022-09-18T10:25:18.207Z,70.11
2022-09-18T10:27:45.694Z,73.64
2022-09-18T10:30:16.339Z,74.41
2022-09-18T10:32:43.885Z,75.65
2022-09-18T10:35:44.766Z,75.53
2022-09-18T10:38:35.177Z,76.39
2022-09-18T10:41:17.566Z,75.90
2022-09-18T10:43:58.310Z,77.96
2022-09-18T10:46:30.444Z,76.44
2022-09-18T10:49:00.468Z,75.66
2022-09-18T10:51:29.270Z,76.33
2022-09-18T10:54:05.934Z,74.98
2022-09-18T10:56:33.729Z,75.17
2022-09-18T10:59:32.075Z,76.66
2022-09-18T11:02:02.330Z,75.65
2022-09-18T11:04:30.164Z,74.43
2022-09-18T11:06:58.910Z,74.67
2022-09-18T11:09:31.858Z,73.18
2022-09-18T11:12:00.851Z,72.30
2022-09-18T11:14:30.931Z,70.71
2022-09-18T11:17:01.930Z,70.61
2022-09-18T11:19:31.082Z,70.49
2022-09-18T11:22:01.080Z,69.37
2022-09-18T11:24:31.228Z,69.38
2022-09-18T11:26:59.924Z,69.12
2022-09-18T11:29:32.402Z,67.91
2022-09-18T11:32:05.372Z,67.20
2022-09-18T11:34:34.607Z,67.66
2022-09-18T11:37:04.003Z,66.95
2022-09-18T11:39:36.391Z,67.86
2022-09-18T11:42:10.045Z,66.92
2022-09-18T11:44:39.716Z,68.56
2022-09-18T11:47:23.142Z,68.03
2022-09-18T11:49:57.084Z,68.12
2022-09-18T11:52:29.222Z,68.33
2022-09-18T11:54:59.502Z,68.57
2022-09-18T11:57:29.997Z,67.68
2022-09-18T11:59:59.755Z,68.02
2022-09-18T12:02:34.871Z,68.11
2022-09-18T12:05:10.888Z,67.53
2022-09-18T12:07:41.976Z,68.64
2022-09-18T12:10:16.488Z,68.10
2022-09-18T12:12:45.962Z,69.61
2022-09-18T12:15:16.905Z,69.29
2022-09-18T12:17:50.055Z,68.35
2022-09-18T12:20:22.695Z,69.49
2022-09-18T12:22:53.674Z,69.26
2022-09-18T12:25:25.986Z,65.73
2022-09-18T12:27:57.369Z,67.66
2022-09-18T12:30:29.338Z,68.02
2022-09-18T12:33:09.491Z,68.03
2022-09-18T12:35:48.428Z,68.49
2022-09-18T12:38:23.565Z,67.80
2022-09-18T12:41:07.769Z,67.94
2022-09-18T12:43:51.248Z,65.89
2022-09-18T12:46:33.633Z,66.70
2022-09-18T12:49:18.219Z,67.06
2022-09-18T12:51:47.795Z,68.23
2022-09-18T12:54:44.306Z,67.92
2022-09-18T12:57:20.694Z,68.04
2022-09-18T12:59:55.807Z,67.38
2022-09-18T13:02:29.049Z,67.86
2022-09-18T13:05:03.160Z,68.07
2022-09-18T13:07:33.227Z,68.22
2022-09-18T13:10:05.295Z,66.65
2022-09-18T13:12:37.585Z,67.19
2022-09-18T13:15:10.908Z,66.59
2022-09-18T13:17:43.921Z,65.40
2022-09-18T13:20:17.312Z,64.94
2022-09-18T13:22:46.936Z,63.83
2022-09-18T13:25:27.108Z,64.73
2022-09-18T13:27:55.514Z,63.85
2022-09-18T13:30:31.812Z,64.38
2022-09-18T13:33:02.801Z,64.47
2022-09-18T13:35:34.104Z,64.92
2022-09-18T13:38:14.934Z,63.41
2022-09-18T13:40:44.713Z,64.54
2022-09-18T13:43:19.301Z,63.73
2022-09-18T13:45:47.157Z,62.93
2022-09-18T13:48:21.975Z,61.02
2022-09-18T13:50:54.117Z,61.68
2022-09-18T13:53:32.700Z,60.30
2022-09-18T13:56:01.737Z,60.85
2022-09-18T13:58:50.051Z,60.96
2022-09-18T14:02:01.494Z,61.11
2022-09-18T14:05:10.104Z,60.28
2022-09-18T14:08:14.523Z,61.51
2022-09-18T14:11:15.720Z,62.56
2022-09-18T14:13:48.905Z,61.73
2022-09-18T14:16:29.503Z,62.52
2022-09-18T14:19:00.851Z,62.38
2022-09-18T14:21:31.917Z,62.20
2022-09-18T14:24:25.358Z,62.62
2022-09-18T14:27:18.895Z,61.84
2022-09-18T14:29:48.858Z,61.95
2022-09-18T14:32:20.407Z,61.96
2022-09-18T14:34:48.699Z,62.07
2022-09-18T14:37:27.873Z,63.06
2022-09-18T14:39:58.776Z,63.60
2022-09-18T14:42:33.504Z,62.35
2022-09-18T14:45:20.334Z,63.00
2022-09-18T14:47:50.097Z,64.84
2022-09-18T14:50:30.786Z,65.73
2022-09-18T14:52:59.746Z,65.45
2022-09-18T14:55:35.045Z,64.45
2022-09-18T14:58:05.639Z,65.04
2022-09-18T15:00:38.347Z,64.37
2022-09-18T15:03:10.797Z,64.54
2022-09-18T15:05:38.824Z,64.78
2022-09-18T15:08:08.349Z,64.43
2022-09-18T15:10:39.949Z,64.68
2022-09-18T15:13:09.458Z,65.67
2022-09-18T15:15:39.646Z,65.59
2022-09-18T15:18:18.914Z,65.59
2022-09-18T15:20:50.347Z,64.83
2022-09-18T15:23:19.803Z,65.07
2022-09-18T15:25:59.144Z,65.44
2022-09-18T15:28:28.282Z,66.09
2022-09-18T15:31:00.852Z,65.16
2022-09-18T15:33:28.960Z,66.71
2022-09-18T15:35:57.502Z,67.06
2022-09-18T15:38:26.968Z,66.47
2022-09-18T15:40:56.024Z,66.56
2022-09-18T15:43:43.613Z,69.18
2022-09-18T15:46:12.949Z,69.30
2022-09-18T15:48:46.306Z,67.44
2022-09-18T15:51:16.054Z,69.09
2022-09-18T15:54:02.486Z,68.87
2022-09-18T15:56:34.050Z,70.27
2022-09-18T15:59:05.848Z,71.05
2022-09-18T16:01:36.223Z,71.50
2022-09-18T16:04:18.056Z,71.22
2022-09-18T16:06:52.756Z,71.24
2022-09-18T16:09:43.786Z,74.20
2022-09-18T16:13:14.019Z,73.56
2022-09-18T16:15:47.371Z,73.07
2022-09-18T16:18:33.017Z,73.24
2022-09-18T16:21:05.469Z,74.65
2022-09-18T16:23:35.682Z,76.36
2022-09-18T16:26:11.725Z,76.88
2022-09-18T16:28:44.505Z,75.88
2022-09-18T16:31:15.474Z,76.37
2022-09-18T16:33:55.282Z,77.08
2022-09-18T16:36:33.099Z,76.04
2022-09-18T16:39:02.448Z,76.69
2022-09-18T16:41:36.264Z,77.81
2022-09-18T16:44:06.936Z,77.72
2022-09-18T16:46:39.565Z,77.21
2022-09-18T16:49:10.616Z,77.41
2022-09-18T16:51:38.688Z,77.64
2022-09-18T16:54:06.987Z,77.64
2022-09-18T16:56:36.892Z,77.22
2022-09-18T16:59:04.832Z,77.81
2022-09-18T17:01:54.137Z,77.84
2022-09-18T17:04:24.190Z,78.12
2022-09-18T17:06:51.630Z,79.40
2022-09-18T17:09:19.381Z,79.00
2022-09-18T17:11:47.191Z,80.41
2022-09-18T17:14:14.714Z,79.40
2022-09-18T17:16:44.820Z,78.55
2022-09-18T17:19:15.162Z,79.25
2022-09-18T17:21:42.935Z,79.23
2022-09-18T17:24:10.985Z,79.26
2022-09-18T17:26:39.715Z,79.34
2022-09-18T17:29:08.210Z,81.04
2022-09-18T17:31:35.705Z,81.10
2022-09-18T17:34:05.666Z,80.78
2022-09-18T17:36:35.855Z,80.89
2022-09-18T17:39:03.769Z,80.55
2022-09-18T17:41:33.097Z,81.69
2022-09-18T17:44:00.775Z,82.07
2022-09-18T17:46:28.575Z,81.27
2022-09-18T17:48:56.635Z,80.70
2022-09-18T17:51:28.720Z,81.16
2022-09-18T17:53:58.913Z,82.67
2022-09-18T17:56:29.929Z,80.61
2022-09-18T17:58:59.593Z,81.74
2022-09-18T18:01:28.816Z,81.38
2022-09-18T18:03:57.218Z,81.56
2022-09-18T18:06:26.374Z,81.12
2022-09-18T18:08:54.211Z,82.70
2022-09-18T18:11:23.719Z,81.35
2022-09-18T18:13:52.253Z,81.44
2022-09-18T18:16:23.605Z,80.53
2022-09-18T18:18:52.179Z,81.05
2022-09-18T18:21:19.886Z,80.92
2022-09-18T18:23:49.059Z,80.86
2022-09-18T18:26:16.784Z,81.98
2022-09-18T18:28:45.164Z,82.80
2022-09-18T18:31:14.498Z,81.80
2022-09-18T18:33:43.588Z,82.94
2022-09-18T18:36:13.056Z,83.01
2022-09-18T18:38:41.404Z,83.34
2022-09-18T18:41:12.450Z,83.88
2022-09-18T18:43:41.104Z,84.33
2022-09-18T18:46:12.756Z,83.94
2022-09-18T18:48:41.040Z,83.04
2022-09-18T18:51:10.061Z,83.07
2022-09-18T18:53:38.656Z,84.41
2022-09-18T18:56:08.411Z,81.11
2022-09-18T18:58:37.793Z,77.64
2022-09-18T19:01:06.426Z,77.62
2022-09-18T19:03:39.333Z,79.19
2022-09-18T19:06:07.848Z,79.82
2022-09-18T19:08:35.811Z,81.41
2022-09-18T19:11:05.668Z,80.63
2022-09-18T19:13:44.209Z,80.92
2022-09-18T19:16:14.485Z,79.95
2022-09-18T19:18:42.356Z,80.73
2022-09-18T19:21:09.983Z,80.71
2022-09-18T19:23:37.761Z,81.99
2022-09-18T19:26:05.607Z,81.27
2022-09-18T19:28:34.123Z,81.15
2022-09-18T19:31:05.509Z,81.42
2022-09-18T19:33:34.494Z,80.94
2022-09-18T19:36:06.001Z,80.18
2022-09-18T19:38:36.367Z,80.97
2022-09-18T19:41:06.077Z,82.05
2022-09-18T19:43:37.164Z,81.97
2022-09-18T19:46:05.872Z,81.08
2022-09-18T19:48:35.023Z,80.47
2022-09-18T19:51:02.672Z,81.29
2022-09-18T19:53:31.134Z,81.05
2022-09-18T19:55:59.138Z,81.61
2022-09-18T19:58:27.254Z,80.45
2022-09-18T20:00:55.126Z,80.65
2022-09-18T20:03:22.830Z,80.14
2022-09-18T20:05:51.940Z,79.95
2022-09-18T20:08:19.579Z,79.13
2022-09-18T20:10:48.309Z,80.16
2022-09-18T20:13:15.932Z,81.56
2022-09-18T20:15:45.314Z,80.67
2022-09-18T20:18:13.363Z,81.65
2022-09-18T20:20:42.487Z,82.41
2022-09-18T20:23:11.769Z,83.67
2022-09-18T20:25:40.184Z,84.55
2022-09-18T20:28:07.825Z,86.49
2022-09-18T20:30:35.466Z,89.08
2022-09-18T20:33:04.263Z,89.92
2022-09-18T20:35:31.934Z,91.02
2022-09-18T20:38:04.055Z,91.72
2022-09-18T20:40:33.732Z,90.88
2022-09-18T20:43:04.291Z,90.63
2022-09-18T20:45:31.908Z,90.67
2022-09-18T20:48:03.990Z,90.09
2022-09-18T20:50:31.490Z,90.18
2022-09-18T20:53:02.345Z,88.02
2022-09-18T20:55:30.006Z,89.75
2022-09-18T20:58:02.132Z,89.13
2022-09-18T21:00:30.154Z,90.10
2022-09-18T21:02:57.770Z,89.94
2022-09-18T21:05:27.078Z,89.05
2022-09-18T21:08:00.745Z,89.40
2022-09-18T21:10:30.452Z,89.79
2022-09-18T21:12:59.763Z,88.91
2022-09-18T21:15:28.573Z,88.36
2022-09-18T21:17:55.989Z,88.54
2022-09-18T21:20:23.666Z,88.85
2022-09-18T21:23:08.739Z,88.68
2022-09-18T21:25:36.284Z,87.86
2022-09-18T21:28:05.949Z,88.02
2022-09-18T21:30:33.416Z,87.75
2022-09-18T21:33:01.743Z,88.89
2022-09-18T21:35:29.173Z,87.40
2022-09-18T21:37:56.632Z,87.92
2022-09-18T21:40:24.416Z,87.79
2022-09-18T21:42:52.962Z,88.26
2022-09-18T21:45:21.746Z,88.52
2022-09-18T21:47:50.673Z,88.08
2022-09-18T21:50:19.088Z,88.09
2022-09-18T21:52:46.506Z,87.19
2022-09-18T21:55:13.950Z,87.29
2022-09-18T21:57:41.398Z,88.44
2022-09-18T22:00:10.037Z,88.22
2022-09-18T22:02:43.142Z,89.02
2022-09-18T22:05:11.638Z,89.29
2022-09-18T22:07:39.190Z,88.94
2022-09-18T22:10:08.025Z,89.05
2022-09-18T22:12:38.941Z,88.99
2022-09-18T22:15:07.321Z,88.59
2022-09-18T22:17:39.251Z,88.90
2022-09-18T22:20:07.823Z,88.51
2022-09-18T22:22:35.326Z,88.74
2022-09-18T22:25:03.181Z,88.64
2022-09-18T22:27:30.615Z,89.29
2022-09-18T22:29:58.042Z,89.82
2022-09-18T22:32:25.836Z,90.33
2022-09-18T22:34:54.622Z,89.88
2022-09-18T22:37:22.284Z,89.56
2022-09-18T22:39:49.716Z,89.83
2022-09-18T22:42:17.392Z,90.33
2022-09-18T22:44:44.873Z,90.48
2022-09-18T22:47:12.510Z,90.42
2022-09-18T22:49:39.930Z,89.96
2022-09-18T22:52:08.684Z,90.43
2022-09-18T22:54:36.177Z,90.84
2022-09-18T22:57:03.779Z,91.03
2022-09-18T22:59:31.211Z,91.44
2022-09-18T23:02:00.044Z,91.87
2022-09-18T23:04:30.969Z,91.35
2022-09-18T23:06:59.336Z,91.41
2022-09-18T23:09:29.118Z,91.78
2022-09-18T23:11:57.631Z,90.96
2022-09-18T23:14:27.553Z,90.66
2022-09-18T23:16:55.919Z,90.27
2022-09-18T23:19:25.868Z,89.95
2022-09-18T23:21:54.138Z,89.74
2022-09-18T23:24:22.281Z,89.51
2022-09-18T23:26:52.647Z,90.22
2022-09-18T23:29:21.242Z,90.35
2022-09-18T23:31:52.759Z,90.46
2022-09-18T23:34:22.025Z,90.74
2022-09-18T23:36:51.240Z,90.46
2022-09-18T23:39:21.301Z,90.70
2022-09-18T23:41:49.156Z,90.97
2022-09-18T23:44:19.127Z,90.78
2022-09-18T23:46:47.443Z,90.85
2022-09-18T23:49:15.833Z,91.11
2022-09-18T23:51:45.949Z,90.80
2022-09-18T23:54:16.555Z,90.18
2022-09-18T23:56:44.196Z,90.48
2022-09-18T23:59:13.069Z,90.00
